createdAt,value
2022-10-23T17:24:13.399Z,4.22
2022-10-23T17:26:41.645Z,6.43
2022-10-23T17:29:10.570Z,6.57
2022-10-23T17:31:40.193Z,9.20
2022-10-23T17:34:10.571Z,8.55
2022-10-23T17:36:42.841Z,6.15
2022-10-23T17:39:12.382Z,5.90
2022-10-23T17:41:40.437Z,5.70
2022-10-23T17:44:08.460Z,4.70
2022-10-23T17:46:36.195Z,5.30
2022-10-23T17:49:04.730Z,7.13
2022-10-23T17:51:34.187Z,6.40
2022-10-23T17:54:04.302Z,4.80
2022-10-23T17:56:34.002Z,5.10
2022-10-23T17:59:05.558Z,7.45
2022-10-23T18:01:33.654Z,6.53
2022-10-23T18:04:03.855Z,5.93
2022-10-23T18:06:37.559Z,8.05
2022-10-23T18:09:06.349Z,8.55
2022-10-23T18:11:43.837Z,10.18
2022-10-23T18:14:15.509Z,8.98
2022-10-23T18:16:43.524Z,10.98
2022-10-23T18:19:11.423Z,9.43
2022-10-23T18:21:40.315Z,6.95
2022-10-23T18:24:08.468Z,11.32
2022-10-23T18:26:39.327Z,10.52
2022-10-23T18:29:08.771Z,10.43
2022-10-23T18:31:37.570Z,8.23
2022-10-23T18:34:09.447Z,9.40
2022-10-23T18:36:39.462Z,9.35
2022-10-23T18:39:09.472Z,11.55
2022-10-23T18:41:39.626Z,11.32
2022-10-23T18:44:08.074Z,6.90
2022-10-23T18:46:36.205Z,11.07
2022-10-23T18:49:04.739Z,8.38
2022-10-23T18:51:34.542Z,12.70
2022-10-23T18:54:05.014Z,13.07
2022-10-23T18:56:34.262Z,9.88
2022-10-23T18:59:03.744Z,12.40
2022-10-23T19:01:32.219Z,10.15
2022-10-23T19:04:01.662Z,8.10
2022-10-23T19:06:30.844Z,8.75
2022-10-23T19:08:59.013Z,9.05
2022-10-23T19:11:28.296Z,10.63
2022-10-23T19:13:56.145Z,10.77
